Time;durP1;ratioP1;P1;durP2;ratioP2;P2;SDS_P1;SDS_P2;PMS_P1;PMS_P2;Temp;Humidity;BMP_temperature;BMP_pressure;BME280_temperature;BME280_humidity;BME280_pressure;Samples;Min_cycle;Max_cycle;Signal;HPM_P1;HPM_P2
2022/10/08 00:00:51;;;;;;;9.80;8.10;;;;;;;7.17;71.72;101696.22;1690304;83;21059;-73
2022/10/08 00:03:19;;;;;;;9.35;8.18;;;;;;;7.24;71.79;101692.22;1709157;83;21083;-72
2022/10/08 00:06:00;;;;;;;9.08;7.62;;;;;;;7.28;71.74;101691.59;1715071;82;21059;-72
2022/10/08 00:08:28;;;;;;;9.90;7.67;;;;;;;7.29;71.68;101685.76;1715441;83;21991;-72
2022/10/08 00:11:03;;;;;;;10.25;7.97;;;;;;;7.34;71.68;101679.32;1715682;83;21083;-73
2022/10/08 00:13:39;;;;;;;10.50;7.55;;;;;;;7.34;71.58;101681.13;1714712;83;21592;-73
2022/10/08 00:15:58;;;;;;;9.03;7.25;;;;;;;7.28;71.59;101682.28;1727883;81;22249;-73
2022/10/08 00:18:25;;;;;;;10.68;7.50;;;;;;;7.23;71.71;101675.95;1730650;82;21576;-73
2022/10/08 00:20:52;;;;;;;11.33;8.78;;;;;;;7.21;71.76;101675.36;1702231;82;21265;-74
2022/10/08 00:23:18;;;;;;;10.88;7.67;;;;;;;7.22;71.92;101675.14;1709824;81;21076;-73
2022/10/08 00:25:46;;;;;;;8.70;7.50;;;;;;;7.30;71.94;101679.41;1715596;83;21076;-73
2022/10/08 00:28:14;;;;;;;11.85;8.18;;;;;;;7.37;71.86;101674.08;1715074;83;21085;-73
2022/10/08 00:30:40;;;;;;;11.80;8.63;;;;;;;7.43;71.75;101663.95;1715483;83;21093;-73
2022/10/08 00:33:07;;;;;;;13.85;9.65;;;;;;;7.46;71.62;101659.55;1715691;81;21108;-72
2022/10/08 00:35:37;;;;;;;13.00;8.58;;;;;;;7.43;71.59;101656.78;1713939;82;21009;-73
2022/10/08 00:38:04;;;;;;;13.80;8.93;;;;;;;7.46;71.57;101654.23;1706385;83;21088;-73
2022/10/08 00:40:31;;;;;;;11.60;8.65;;;;;;;7.45;71.53;101648.09;1714735;82;21155;-73
2022/10/08 00:42:59;;;;;;;11.12;8.83;;;;;;;7.59;71.30;101644.88;1714336;82;21118;-72
2022/10/08 00:45:26;;;;;;;11.10;9.00;;;;;;;7.52;71.40;101638.77;1715048;83;21299;-73
2022/10/08 00:47:56;;;;;;;10.63;8.55;;;;;;;7.52;71.51;101641.43;1715444;83;21019;-72
2022/10/08 00:50:33;;;;;;;10.20;8.28;;;;;;;7.55;71.55;101637.55;1708059;83;21560;-73
2022/10/08 00:53:02;;;;;;;11.53;8.78;;;;;;;7.58;71.55;101637.94;1713498;83;21051;-72
2022/10/08 00:55:29;;;;;;;11.65;9.00;;;;;;;7.61;71.51;101636.70;1727744;81;21543;-72
2022/10/08 00:58:00;;;;;;;11.55;8.53;;;;;;;7.60;71.45;101631.91;1688553;83;21521;-73
2022/10/08 01:00:28;;;;;;;11.08;8.90;;;;;;;7.61;71.38;101630.06;1717885;81;21077;-73
2022/10/08 01:02:55;;;;;;;10.58;8.15;;;;;;;7.59;71.28;101640.89;1688356;83;21007;-73
2022/10/08 01:05:38;;;;;;;12.40;8.60;;;;;;;7.59;71.20;101634.76;1716772;83;21010;-72
2022/10/08 01:08:25;;;;;;;11.25;8.43;;;;;;;7.59;71.17;101634.76;1719701;82;20996;-72
2022/10/08 01:11:15;;;;;;;14.13;8.90;;;;;;;7.58;71.13;101631.81;1716648;83;21794;-73
2022/10/08 01:13:51;;;;;;;11.03;8.88;;;;;;;7.51;71.09;101626.00;1640834;83;21111;-74
2022/10/08 01:16:32;;;;;;;10.15;8.63;;;;;;;7.45;71.11;101625.50;1712666;81;21057;-73
2022/10/08 01:19:30;;;;;;;11.88;9.30;;;;;;;7.45;71.20;101624.69;1662243;83;21197;-73
2022/10/08 01:22:24;;;;;;;19.98;9.35;;;;;;;7.46;71.13;101624.98;1699437;82;21428;-74
2022/10/08 01:27:52;;;;;;;11.57;8.45;;;;;;;7.31;71.30;101617.28;1676572;83;21054;-73
2022/10/08 01:30:19;;;;;;;11.60;8.45;;;;;;;7.33;71.48;101615.21;1725484;83;21137;-73
2022/10/08 01:32:50;;;;;;;10.82;8.65;;;;;;;7.40;71.56;101608.55;1725225;83;20976;-73
2022/10/08 01:35:30;;;;;;;10.70;8.68;;;;;;;7.44;71.51;101613.77;1727233;81;21322;-73
2022/10/08 01:38:05;;;;;;;10.63;8.88;;;;;;;7.45;71.47;101607.41;1690312;84;21915;-74
2022/10/08 01:40:36;;;;;;;11.08;8.80;;;;;;;7.49;71.40;101609.43;1698306;83;20999;-73
2022/10/08 01:43:05;;;;;;;11.88;9.30;;;;;;;7.52;71.37;101610.86;1704460;81;21045;-73
2022/10/08 01:45:36;;;;;;;14.20;9.90;;;;;;;7.55;71.35;101609.11;1726884;81;21124;-73
2022/10/08 01:48:07;;;;;;;12.78;8.43;;;;;;;7.60;71.33;101610.64;1725019;83;20966;-74
2022/10/08 01:51:01;;;;;;;16.17;8.83;;;;;;;7.61;71.24;101605.61;1725082;83;21265;-74
2022/10/08 01:53:32;;;;;;;11.93;9.25;;;;;;;7.63;71.20;101616.02;1724380;83;21061;-74
2022/10/08 01:56:01;;;;;;;13.35;9.38;;;;;;;7.63;71.14;101610.19;1724552;81;21041;-74
2022/10/08 01:58:48;;;;;;;12.75;8.83;;;;;;;7.63;71.15;101613.36;1724733;83;21068;-73
2022/10/08 02:01:32;;;;;;;13.30;9.25;;;;;;;7.63;71.14;101613.36;1719027;83;21022;-74
2022/10/08 02:06:47;;;;;;;11.00;8.70;;;;;;;7.67;71.26;101628.70;1730342;81;21050;-73
2022/10/08 02:09:13;;;;;;;10.68;8.10;;;;;;;7.68;71.35;101626.85;1724031;83;21430;-73
2022/10/08 02:11:41;;;;;;;12.05;8.98;;;;;;;7.72;71.40;101631.53;1725146;83;21445;-73
2022/10/08 02:14:08;;;;;;;12.23;8.98;;;;;;;7.76;71.44;101623.94;1724015;81;21089;-73
2022/10/08 02:16:35;;;;;;;11.43;8.58;;;;;;;7.77;71.37;101630.91;1724477;83;21298;-73
2022/10/08 02:19:10;;;;;;;15.48;8.90;;;;;;;7.73;71.45;101623.87;1724813;83;20987;-73
2022/10/08 02:21:38;;;;;;;13.68;8.55;;;;;;;7.76;71.53;101626.59;1724627;81;21002;-74
2022/10/08 02:24:17;;;;;;;15.05;9.00;;;;;;;7.74;71.57;101622.02;1722820;81;21108;-73
2022/10/08 02:26:48;;;;;;;17.45;9.15;;;;;;;7.79;71.70;101622.19;1696197;81;21086;-73
2022/10/08 02:29:19;;;;;;;23.32;9.35;;;;;;;7.85;71.74;101623.19;1695998;83;21142;-73
2022/10/08 02:31:51;;;;;;;16.30;8.73;;;;;;;7.84;71.65;101625.56;1695641;83;21002;-73
2022/10/08 02:34:26;;;;;;;21.00;9.10;;;;;;;7.74;71.67;101624.16;1722018;81;20998;-73
2022/10/08 02:37:15;;;;;;;16.07;8.83;;;;;;;7.61;71.77;101628.73;1725264;83;20979;-74
2022/10/08 02:39:51;;;;;;;17.23;9.28;;;;;;;7.56;72.04;101627.20;1725596;83;20947;-74
2022/10/08 02:42:22;;;;;;;17.62;9.28;;;;;;;7.62;72.15;101625.03;1723905;83;21104;-74
2022/10/08 02:44:52;;;;;;;13.62;9.15;;;;;;;7.55;72.08;101626.39;1724553;83;21077;-73
2022/10/08 02:47:24;;;;;;;11.43;8.45;;;;;;;7.48;72.20;101628.27;1725325;83;21066;-74
2022/10/08 02:50:04;;;;;;;13.08;8.43;;;;;;;7.51;72.27;101629.98;1725274;83;21041;-73
2022/10/08 02:52:35;;;;;;;9.90;8.00;;;;;;;7.54;72.33;101627.95;1722547;83;21845;-73
2022/10/08 02:55:08;;;;;;;10.45;7.95;;;;;;;7.59;72.25;101630.25;1724282;83;21097;-73
2022/10/08 02:57:42;;;;;;;11.38;8.18;;;;;;;7.60;72.21;101629.73;1723312;83;20960;-73
2022/10/08 03:00:11;;;;;;;11.20;8.10;;;;;;;7.60;72.10;101634.56;1724263;83;21009;-73
2022/10/08 03:03:00;;;;;;;12.53;7.83;;;;;;;7.60;71.99;101630.58;1724169;81;21003;-73
2022/10/08 03:05:28;;;;;;;10.43;8.10;;;;;;;7.61;71.85;101629.55;1725311;81;21086;-72
2022/10/08 03:07:54;;;;;;;9.00;7.00;;;;;;;7.60;71.72;101634.56;1725596;83;21130;-72
2022/10/08 03:10:24;;;;;;;9.25;6.60;;;;;;;7.62;71.56;101627.17;1724509;83;20979;-73
2022/10/08 03:12:49;;;;;;;15.25;6.80;;;;;;;7.53;71.28;101631.09;1708244;82;21132;-72
2022/10/08 03:15:17;;;;;;;12.65;6.58;;;;;;;7.38;71.13;101629.22;1716980;83;21012;-72
2022/10/08 03:17:45;;;;;;;17.92;6.80;;;;;;;7.19;71.01;101621.08;1722342;81;20970;-72
2022/10/08 03:20:12;;;;;;;11.60;6.33;;;;;;;7.02;70.99;101626.54;1714722;83;21138;-72
2022/10/08 03:22:39;;;;;;;12.37;6.50;;;;;;;6.89;71.07;101622.57;1715337;82;21119;-72
2022/10/08 03:25:06;;;;;;;13.45;6.00;;;;;;;6.79;71.16;101621.14;1688153;85;21056;-72
2022/10/08 03:27:34;;;;;;;17.17;6.12;;;;;;;6.70;71.27;101623.70;1679140;83;21049;-72
2022/10/08 03:30:01;;;;;;;14.43;6.20;;;;;;;6.61;71.41;101628.90;1688238;83;21088;-72
2022/10/08 03:32:29;;;;;;;17.20;6.10;;;;;;;6.55;71.52;101628.41;1688718;83;21884;-72
2022/10/08 03:34:56;;;;;;;24.10;6.25;;;;;;;6.48;71.63;101631.06;1688579;83;21046;-72
2022/10/08 03:37:23;;;;;;;19.37;6.33;;;;;;;6.37;71.75;101629.52;1687693;83;20990;-72
2022/10/08 03:39:50;;;;;;;13.50;6.33;;;;;;;6.30;71.93;101623.68;1666215;85;21065;-72
2022/10/08 03:42:17;;;;;;;11.80;6.10;;;;;;;6.25;72.04;101629.28;1687692;85;21499;-72
2022/10/08 03:44:43;;;;;;;7.53;5.70;;;;;;;6.26;72.26;101626.95;1688543;83;21170;-72
2022/10/08 03:47:10;;;;;;;11.85;6.20;;;;;;;6.32;72.30;101623.50;1687748;83;21049;-73
2022/10/08 03:49:36;;;;;;;11.38;6.03;;;;;;;6.40;72.30;101619.82;1687747;85;21002;-73
2022/10/08 03:52:03;;;;;;;8.23;6.12;;;;;;;6.46;72.10;101626.97;1687405;85;21049;-72
2022/10/08 03:54:29;;;;;;;10.70;6.10;;;;;;;6.61;71.78;101618.80;1686795;85;21037;-72
2022/10/08 03:56:56;;;;;;;12.53;5.95;;;;;;;6.67;71.70;101619.31;1719965;82;21312;-72
2022/10/08 03:59:23;;;;;;;14.38;6.35;;;;;;;6.70;71.63;101628.20;1717317;83;21049;-73
2022/10/08 04:01:50;;;;;;;9.95;6.20;;;;;;;6.50;71.79;101625.54;1717328;82;21020;-72
2022/10/08 04:04:17;;;;;;;17.67;6.58;;;;;;;6.43;71.87;101626.86;1722831;81;20989;-72
2022/10/08 04:06:43;;;;;;;12.30;6.28;;;;;;;6.37;72.02;101617.57;1725061;81;21103;-72
2022/10/08 04:09:11;;;;;;;16.80;6.55;;;;;;;6.36;72.10;101621.25;1717751;83;21613;-72
2022/10/08 04:11:38;;;;;;;9.93;6.17;;;;;;;6.43;72.19;101620.74;1723614;81;21012;-74
2022/10/08 04:14:05;;;;;;;8.78;6.33;;;;;;;6.49;72.15;101618.61;1734298;81;21013;-72
2022/10/08 04:16:31;;;;;;;11.12;6.47;;;;;;;6.56;72.17;101616.25;1746812;82;20997;-72
2022/10/08 04:18:58;;;;;;;11.15;6.53;;;;;;;6.63;72.16;101624.21;1716132;83;21001;-71
2022/10/08 04:21:25;;;;;;;7.28;6.30;;;;;;;6.65;72.12;101619.53;1740892;81;21109;-72
2022/10/08 04:23:52;;;;;;;19.10;7.20;;;;;;;6.58;72.05;101621.34;1715928;83;21060;-71
2022/10/08 04:26:18;;;;;;;14.80;6.47;;;;;;;6.47;72.18;101612.16;1746900;82;21029;-72
2022/10/08 04:28:46;;;;;;;12.65;6.60;;;;;;;6.41;72.34;101620.12;1716084;83;21025;-71
2022/10/08 04:31:20;;;;;;;18.42;7.15;;;;;;;6.38;72.53;101615.22;1725545;81;21538;-72
2022/10/08 04:33:49;;;;;;;10.70;6.62;;;;;;;6.41;72.67;101622.77;1684300;85;21723;-72
2022/10/08 04:36:19;;;;;;;14.87;6.50;;;;;;;6.45;72.84;101617.36;1716797;83;21001;-72
2022/10/08 04:38:46;;;;;;;19.67;6.72;;;;;;;6.49;72.96;101620.75;1716983;82;21629;-72
2022/10/08 04:41:16;;;;;;;11.63;6.20;;;;;;;6.55;73.17;101617.80;1735150;81;21069;-72
2022/10/08 04:43:43;;;;;;;7.95;6.00;;;;;;;6.65;73.39;101620.05;1715601;83;21012;-72
2022/10/08 04:46:13;;;;;;;14.58;6.35;;;;;;;6.77;73.50;101623.17;1746813;82;21801;-72
2022/10/08 04:48:46;;;;;;;8.68;6.30;;;;;;;6.87;73.68;101628.08;1715983;83;21016;-72
2022/10/08 04:51:14;;;;;;;12.23;6.60;;;;;;;7.00;73.79;101621.93;1730867;81;20994;-72
2022/10/08 04:53:41;;;;;;;18.10;6.95;;;;;;;7.17;73.93;101621.81;1717487;83;21004;-72
2022/10/08 04:56:15;;;;;;;16.67;6.00;;;;;;;7.33;73.99;101625.84;1716704;81;21002;-72
2022/10/08 04:58:44;;;;;;;14.75;6.10;;;;;;;7.51;74.08;101629.98;1662961;85;21944;-72
2022/10/08 05:01:18;;;;;;;11.50;5.90;;;;;;;7.65;74.05;101624.09;1688495;85;21014;-72
2022/10/08 05:03:47;;;;;;;20.62;6.95;;;;;;;7.72;73.98;101633.37;1693698;81;21134;-73
2022/10/08 05:06:16;;;;;;;12.05;6.22;;;;;;;7.71;73.96;101631.23;1739988;81;21002;-73
2022/10/08 05:08:46;;;;;;;16.85;6.60;;;;;;;7.77;74.04;101624.78;1716048;83;20945;-72
2022/10/08 05:11:15;;;;;;;32.93;7.12;;;;;;;7.85;74.15;101624.52;1747097;82;21164;-73
2022/10/08 05:13:44;;;;;;;41.73;7.78;;;;;;;7.91;74.16;101623.16;1715012;83;20945;-72
2022/10/08 05:16:12;;;;;;;41.92;7.92;;;;;;;7.99;74.19;101626.07;1722556;81;21056;-73
2022/10/08 05:18:45;;;;;;;11.65;5.97;;;;;;;8.12;74.24;101625.19;1715168;83;21611;-73
2022/10/08 05:21:17;;;;;;;12.43;6.10;;;;;;;8.19;74.22;101625.46;1688375;85;21029;-72
2022/10/08 05:23:45;;;;;;;11.90;5.97;;;;;;;8.21;74.15;101623.38;1701155;81;21785;-73
2022/10/08 05:26:20;;;;;;;21.02;6.75;;;;;;;8.19;74.23;101624.13;1717466;83;21091;-72
2022/10/08 05:28:47;;;;;;;13.88;7.10;;;;;;;8.22;74.33;101625.52;1717405;83;20986;-73
2022/10/08 05:31:15;;;;;;;22.05;7.58;;;;;;;8.36;74.53;101616.44;1719382;81;21098;-73
2022/10/08 05:33:43;;;;;;;13.85;7.80;;;;;;;8.55;74.61;101618.66;1680667;83;20961;-73
2022/10/08 05:36:26;;;;;;;11.90;7.45;;;;;;;8.71;74.50;101619.16;1717224;83;21720;-73
2022/10/08 05:38:55;;;;;;;13.88;7.40;;;;;;;8.86;74.45;101617.79;1717090;83;20993;-73
2022/10/08 05:41:24;;;;;;;18.70;7.30;;;;;;;9.03;74.38;101615.37;1716795;81;20978;-73
2022/10/08 05:43:53;;;;;;;13.85;7.00;;;;;;;9.15;74.27;101612.28;1717622;83;21548;-74
2022/10/08 05:46:20;;;;;;;9.40;7.70;;;;;;;9.23;74.05;101606.34;1717535;81;21076;-74
2022/10/08 05:48:47;;;;;;;8.83;7.30;;;;;;;9.33;73.88;101603.98;1731502;81;21542;-74
2022/10/08 05:51:15;;;;;;;8.83;7.42;;;;;;;9.36;73.60;101610.20;1737659;82;21089;-74
2022/10/08 05:53:46;;;;;;;10.93;8.28;;;;;;;9.37;73.43;101610.48;1721473;81;21080;-74
2022/10/08 05:56:13;;;;;;;14.38;9.00;;;;;;;9.37;73.31;101609.96;1723410;81;21089;-74
2022/10/08 05:58:41;;;;;;;12.95;9.10;;;;;;;9.47;73.33;101608.63;1735005;81;21694;-74
2022/10/08 06:01:22;;;;;;;12.55;9.25;;;;;;;9.58;73.26;101608.70;1747316;82;21528;-74
2022/10/08 06:03:50;;;;;;;;;;;;;;;9.68;73.16;101604.17;1736033;82;20946;-74
2022/10/08 06:06:17;;;;;;;13.58;10.75;;;;;;;9.72;72.97;101595.20;1718049;81;20137;-72
2022/10/08 06:08:46;;;;;;;16.23;11.10;;;;;;;9.80;73.09;101598.87;1720477;81;21108;-73
2022/10/08 06:11:14;;;;;;;15.60;11.40;;;;;;;9.96;73.12;101606.77;1717229;83;21026;-74
2022/10/08 06:13:40;;;;;;;13.45;10.93;;;;;;;10.06;73.00;101603.83;1695245;83;21294;-73
2022/10/08 06:16:09;;;;;;;14.18;10.90;;;;;;;10.16;72.89;101601.14;1731801;81;21073;-73
2022/10/08 06:18:39;;;;;;;14.20;11.43;;;;;;;10.24;72.81;101601.63;1692804;83;21532;-72
2022/10/08 06:21:08;;;;;;;13.28;11.45;;;;;;;10.30;72.73;101595.94;1692350;84;21053;-73
2022/10/08 06:23:36;;;;;;;16.50;12.00;;;;;;;10.41;72.80;101595.13;1698327;81;20965;-72
2022/10/08 06:26:06;;;;;;;15.65;11.50;;;;;;;10.57;72.87;101588.30;1721328;81;21135;-72
2022/10/08 06:28:34;;;;;;;16.12;12.40;;;;;;;10.70;72.78;101588.08;1720915;83;21068;-73
2022/10/08 06:31:01;;;;;;;13.10;11.33;;;;;;;10.85;72.70;101590.80;1720920;83;21132;-73
2022/10/08 06:33:28;;;;;;;13.58;10.82;;;;;;;11.00;72.64;101590.61;1730510;81;21000;-73
2022/10/08 06:35:55;;;;;;;13.55;11.22;;;;;;;11.18;72.52;101588.30;1733135;81;20975;-72
2022/10/08 06:38:22;;;;;;;13.48;11.25;;;;;;;11.28;72.32;101595.20;1745046;81;21141;-73
2022/10/08 06:40:48;;;;;;;11.67;10.47;;;;;;;11.39;72.18;101592.76;1731654;81;21005;-74
2022/10/08 06:43:17;;;;;;;13.77;10.97;;;;;;;11.49;72.10;101596.45;1737505;81;21560;-73
2022/10/08 06:45:46;;;;;;;12.27;10.23;;;;;;;11.61;71.94;101584.34;1725654;81;21267;-73
2022/10/08 06:48:12;;;;;;;12.43;10.53;;;;;;;11.76;71.85;101594.55;1721432;83;21967;-73
2022/10/08 06:50:39;;;;;;;13.80;11.43;;;;;;;11.87;71.62;101588.34;1716684;81;21292;-73
2022/10/08 06:53:08;;;;;;;12.03;10.73;;;;;;;11.97;71.52;101589.86;1717001;83;21132;-73
2022/10/08 06:55:35;;;;;;;11.73;10.20;;;;;;;12.05;71.18;101586.53;1717687;83;21220;-74
2022/10/08 06:58:03;;;;;;;12.13;10.60;;;;;;;12.10;71.02;101586.07;1717891;83;21207;-74
2022/10/08 07:00:30;;;;;;;12.73;10.20;;;;;;;12.21;71.00;101584.41;1713166;82;21446;-74
2022/10/08 07:02:59;;;;;;;12.17;10.40;;;;;;;12.34;70.88;101586.77;1717614;83;21133;-74
2022/10/08 07:05:25;;;;;;;13.53;11.77;;;;;;;12.39;70.53;101580.13;1717688;82;21467;-74
2022/10/08 07:07:54;;;;;;;11.53;10.37;;;;;;;12.37;70.33;101578.23;1715765;82;21208;-74
2022/10/08 07:10:20;;;;;;;12.27;10.57;;;;;;;12.31;70.16;101571.70;1716296;82;21187;-74
2022/10/08 07:12:47;;;;;;;12.53;10.50;;;;;;;12.29;70.16;101573.27;1716609;83;22094;-74
2022/10/08 07:15:15;;;;;;;11.47;9.40;;;;;;;12.35;70.25;101565.60;1717845;82;21729;-74
2022/10/08 07:17:42;;;;;;;11.07;9.57;;;;;;;12.43;70.33;101560.36;1720470;82;21836;-74
2022/10/08 07:20:08;;;;;;;13.27;10.23;;;;;;;12.53;70.33;101563.72;1690356;83;21354;-74
2022/10/08 07:22:36;;;;;;;12.10;10.00;;;;;;;12.61;70.34;101556.09;1717469;83;21428;-74
2022/10/08 07:25:03;;;;;;;11.10;8.83;;;;;;;12.76;70.38;101550.65;1716721;81;21233;-74
2022/10/08 07:27:30;;;;;;;13.30;8.70;;;;;;;12.93;70.33;101543.91;1715356;82;21289;-74
2022/10/08 07:29:57;;;;;;;12.17;8.43;;;;;;;13.10;70.20;101546.83;1746995;82;21298;-74
2022/10/08 07:32:24;;;;;;;12.00;7.67;;;;;;;13.32;69.91;101542.00;1730572;82;21075;-73
2022/10/08 07:34:50;;;;;;;11.20;7.17;;;;;;;13.52;69.59;101547.62;1714366;81;21710;-74
2022/10/08 07:37:19;;;;;;;12.80;7.00;;;;;;;13.73;69.22;101539.23;1717159;81;21296;-74
2022/10/08 07:39:45;;;;;;;12.20;7.10;;;;;;;13.95;68.94;101539.68;1702063;81;21260;-74
2022/10/08 07:42:12;;;;;;;12.33;7.03;;;;;;;14.14;68.47;101540.92;1685759;83;21696;-74
2022/10/08 07:44:39;;;;;;;9.07;6.57;;;;;;;14.33;68.06;101529.25;1715869;81;21321;-74
2022/10/08 07:47:07;;;;;;;11.33;7.20;;;;;;;14.50;67.57;101529.92;1695482;83;21419;-73
2022/10/08 07:49:33;;;;;;;10.63;6.70;;;;;;;14.70;67.01;101534.61;1716639;83;21195;-73
2022/10/08 07:52:00;;;;;;;12.00;6.50;;;;;;;14.87;66.48;101530.94;1719325;82;21877;-73
2022/10/08 07:54:27;;;;;;;10.90;5.93;;;;;;;15.01;65.86;101528.86;1687023;85;21255;-73
2022/10/08 07:56:54;;;;;;;10.43;5.87;;;;;;;15.16;65.37;101529.98;1728084;81;21396;-72
2022/10/08 07:59:20;;;;;;;10.30;5.43;;;;;;;15.30;64.84;101524.91;1731785;81;21398;-72
2022/10/08 08:01:47;;;;;;;9.27;5.13;;;;;;;15.41;64.14;101513.12;1471603;81;10000566;-73
2022/10/08 08:04:14;;;;;;;10.77;5.40;;;;;;;15.52;63.43;101515.28;1359465;81;10017728;-72
2022/10/08 08:06:48;;;;;;;10.03;5.23;;;;;;;15.63;63.03;101514.22;1715337;83;26877;-72
2022/10/08 08:09:17;;;;;;;9.93;4.87;;;;;;;15.71;62.54;101509.70;1720123;81;21032;-73
2022/10/08 08:11:45;;;;;;;7.50;4.30;;;;;;;15.89;61.63;101501.61;1729924;81;22319;-73
2022/10/08 08:14:11;;;;;;;8.90;4.33;;;;;;;15.89;61.63;101501.61;1715588;83;21757;-73
2022/10/08 08:16:38;;;;;;;9.93;4.47;;;;;;;16.02;61.48;101497.57;1712546;81;21782;-72
2022/10/08 08:19:05;;;;;;;7.23;4.07;;;;;;;16.16;61.19;101495.42;1723795;81;21731;-73
2022/10/08 08:21:35;;;;;;;7.67;4.13;;;;;;;16.31;60.76;101504.01;1716363;81;21773;-73
2022/10/08 08:24:07;;;;;;;9.77;4.20;;;;;;;16.47;60.22;101498.59;1716441;82;21769;-73
2022/10/08 08:26:36;;;;;;;9.57;4.17;;;;;;;16.60;59.51;101489.39;1714857;83;21737;-73
2022/10/08 08:29:07;;;;;;;7.43;4.07;;;;;;;16.73;58.68;101492.59;1715557;82;21748;-73
2022/10/08 08:31:42;;;;;;;9.47;3.93;;;;;;;16.82;58.33;101483.69;1715272;83;21801;-73
2022/10/08 08:34:12;;;;;;;7.90;3.70;;;;;;;16.93;58.12;101489.03;1711850;83;22337;-73
2022/10/08 08:36:41;;;;;;;10.73;4.20;;;;;;;17.04;57.78;101483.84;1715572;83;22082;-73
2022/10/08 08:39:25;;;;;;;5.43;3.60;;;;;;;17.15;57.27;101478.67;1715116;83;21848;-73
2022/10/08 08:42:25;;;;;;;7.47;3.90;;;;;;;17.26;56.63;101479.42;1714548;83;21041;-73
2022/10/08 08:45:01;;;;;;;8.93;4.10;;;;;;;17.34;56.36;101472.06;1697391;83;21767;-72
2022/10/08 08:47:38;;;;;;;7.23;3.90;;;;;;;17.48;56.25;101470.37;1713993;83;21179;-73
2022/10/08 08:50:32;;;;;;;7.53;4.03;;;;;;;17.61;56.05;101463.52;1706562;82;21586;-73
2022/10/08 08:53:02;;;;;;;9.10;3.90;;;;;;;17.75;55.76;101460.98;1697456;83;21870;-71
2022/10/08 08:55:42;;;;;;;7.37;4.17;;;;;;;17.91;55.09;101461.69;1698647;83;21622;-72
2022/10/08 08:58:37;;;;;;;7.42;4.22;;;;;;;18.00;54.67;101462.14;1680138;83;21049;-72
2022/10/08 09:01:18;;;;;;;7.93;4.43;;;;;;;18.08;54.33;101450.45;1715057;83;21108;-73
2022/10/08 09:03:52;;;;;;;7.95;3.87;;;;;;;18.14;53.90;101452.02;1698894;83;21094;-71
2022/10/08 09:06:21;;;;;;;7.57;3.43;;;;;;;18.20;53.59;101446.27;1703375;83;21256;-72
2022/10/08 09:09:01;;;;;;;5.10;2.93;;;;;;;18.30;53.20;101449.97;1707674;83;21562;-72
2022/10/08 09:11:29;;;;;;;6.63;2.80;;;;;;;18.37;52.78;101439.05;1697525;83;21042;-72
2022/10/08 09:14:04;;;;;;;5.30;2.87;;;;;;;18.48;52.38;101431.62;1715780;82;21038;-73
2022/10/08 09:16:32;;;;;;;5.87;2.43;;;;;;;18.58;51.79;101432.05;1701724;83;21606;-73
2022/10/08 09:18:59;;;;;;;7.33;2.60;;;;;;;18.67;51.27;101424.90;1716679;82;21210;-74
2022/10/08 09:21:25;;;;;;;5.67;2.40;;;;;;;18.81;50.75;101427.17;1726240;83;21542;-74
2022/10/08 09:23:52;;;;;;;6.97;2.47;;;;;;;18.95;50.09;101425.90;1677657;83;21057;-73
2022/10/08 09:26:27;;;;;;;5.73;1.90;;;;;;;19.05;49.11;101423.59;1726244;83;21094;-73
2022/10/08 09:28:57;;;;;;;5.53;2.13;;;;;;;19.13;48.75;101422.40;1726284;83;20976;-73
2022/10/08 09:31:32;;;;;;;7.10;2.20;;;;;;;19.27;47.98;101418.39;1706861;83;21776;-73
2022/10/08 09:34:17;;;;;;;4.57;2.10;;;;;;;19.36;47.06;101417.98;1725556;82;21535;-74
2022/10/08 09:37:03;;;;;;;5.87;2.03;;;;;;;19.42;46.94;101410.04;1727107;83;21180;-72
2022/10/08 09:39:33;;;;;;;5.80;2.37;;;;;;;19.52;46.59;101412.34;1727046;83;21108;-71
2022/10/08 09:42:09;;;;;;;5.03;1.93;;;;;;;19.60;46.10;101414.36;1726411;83;21046;-72
2022/10/08 09:44:57;;;;;;;4.80;1.90;;;;;;;19.67;45.83;101406.67;1726736;83;21131;-74
2022/10/08 09:47:25;;;;;;;5.50;1.93;;;;;;;19.73;45.58;101401.98;1727587;83;21074;-73
2022/10/08 09:50:14;;;;;;;5.10;2.10;;;;;;;19.76;45.11;101394.61;1726158;82;21199;-73
2022/10/08 09:52:41;;;;;;;4.93;2.10;;;;;;;19.78;45.31;101395.92;1713991;81;21026;-73
2022/10/08 09:55:24;;;;;;;5.03;2.40;;;;;;;19.81;44.87;101399.92;1728366;81;21065;-74
2022/10/08 09:57:54;;;;;;;5.43;2.40;;;;;;;19.83;45.09;101390.39;1717934;81;21266;-73
2022/10/08 10:00:25;;;;;;;4.33;2.53;;;;;;;19.88;45.03;101390.88;1729549;82;20935;-73
2022/10/08 10:02:54;;;;;;;6.33;2.50;;;;;;;19.93;44.76;101381.27;1731825;82;20999;-74
2022/10/08 10:05:32;;;;;;;7.33;2.40;;;;;;;19.93;44.29;101380.47;1726074;82;21073;-74
2022/10/08 10:07:58;;;;;;;4.60;2.20;;;;;;;19.89;44.25;101368.87;1708673;84;21916;-74
2022/10/08 10:10:33;;;;;;;5.63;2.70;;;;;;;19.89;44.38;101360.73;1708290;84;21218;-74
2022/10/08 10:13:21;;;;;;;5.77;2.30;;;;;;;19.97;44.07;101362.49;1717536;82;21041;-73
2022/10/08 10:15:55;;;;;;;5.20;2.13;;;;;;;20.05;43.33;101359.09;1717547;81;20960;-73
2022/10/08 10:18:29;;;;;;;5.10;2.10;;;;;;;20.05;43.00;101349.60;1687074;83;21566;-74
2022/10/08 10:21:01;;;;;;;6.23;2.70;;;;;;;20.07;43.18;101347.38;1716909;83;21017;-74
2022/10/08 10:23:38;;;;;;;4.65;2.20;;;;;;;20.10;42.25;101337.28;1714774;83;21162;-75
2022/10/08 10:26:28;;;;;;;5.07;2.37;;;;;;;20.08;42.81;101333.53;1726840;81;21175;-74
2022/10/08 10:29:19;;;;;;;8.07;2.33;;;;;;;20.17;42.68;101336.34;1706547;81;20973;-74
2022/10/08 10:32:03;;;;;;;10.17;2.93;;;;;;;20.28;42.32;101330.16;1724270;82;20966;-72
2022/10/08 10:34:33;;;;;;;6.73;2.40;;;;;;;20.36;42.08;101331.58;1727047;82;21112;-75
2022/10/08 10:37:11;;;;;;;6.87;2.30;;;;;;;20.43;41.76;101320.31;1720370;81;21623;-74
2022/10/08 10:39:43;;;;;;;8.40;2.80;;;;;;;20.47;41.85;101315.91;1714589;81;21119;-73
2022/10/08 10:42:21;;;;;;;5.73;2.60;;;;;;;20.52;41.46;101309.58;1710295;82;21561;-74
2022/10/08 10:44:59;;;;;;;10.30;3.30;;;;;;;20.58;41.54;101306.45;1716324;83;21005;-73
2022/10/08 10:47:30;;;;;;;7.83;2.57;;;;;;;20.66;41.61;101299.48;1717088;83;21093;-74
2022/10/08 10:49:57;;;;;;;5.70;2.35;;;;;;;20.74;41.21;101296.05;1716468;82;21584;-73
2022/10/08 10:52:38;;;;;;;5.57;2.10;;;;;;;20.77;41.24;101298.14;1716413;83;21097;-73
2022/10/08 10:55:34;;;;;;;6.25;2.02;;;;;;;20.74;41.16;101289.81;1716998;83;21580;-73
2022/10/08 10:58:21;;;;;;;4.50;2.13;;;;;;;20.75;41.47;101290.85;1717590;83;21022;-73
2022/10/08 11:01:17;;;;;;;4.63;1.80;;;;;;;20.83;41.40;101281.19;1693271;82;21005;-72
2022/10/08 11:03:49;;;;;;;6.17;2.07;;;;;;;20.88;41.58;101280.25;1689153;84;21114;-73
2022/10/08 11:06:48;;;;;;;5.83;2.30;;;;;;;20.93;41.44;101278.78;1688487;84;20958;-73
2022/10/08 11:09:40;;;;;;;5.20;2.00;;;;;;;20.97;41.09;101273.77;1688376;83;20982;-73
2022/10/08 11:12:38;;;;;;;5.73;2.00;;;;;;;20.95;40.98;101265.68;1714217;81;21545;-73
2022/10/08 11:15:14;;;;;;;4.67;1.90;;;;;;;20.93;40.66;101262.48;1717480;83;21057;-74
2022/10/08 11:18:13;;;;;;;4.50;1.90;;;;;;;20.94;40.86;101258.66;1717478;83;21681;-72
2022/10/08 11:21:02;;;;;;;4.73;1.70;;;;;;;20.98;40.95;101256.36;1716834;83;21556;-73
2022/10/08 11:24:10;;;;;;;4.50;1.80;;;;;;;21.02;40.24;101245.67;1706469;83;21040;-73
2022/10/08 11:26:55;;;;;;;3.47;1.60;;;;;;;21.02;40.03;101238.88;1717438;83;20986;-73
2022/10/08 11:30:01;;;;;;;4.57;1.70;;;;;;;20.99;40.13;101236.78;1717589;83;21049;-73
2022/10/08 11:32:28;;;;;;;3.63;1.70;;;;;;;21.03;39.79;101225.56;1716952;83;21566;-73
2022/10/08 11:35:13;;;;;;;5.97;1.80;;;;;;;21.08;39.82;101223.50;1716851;83;21069;-73
2022/10/08 11:38:02;;;;;;;4.30;1.63;;;;;;;21.11;39.69;101213.14;1716794;83;21619;-73
2022/10/08 11:40:37;;;;;;;5.73;1.73;;;;;;;21.14;39.25;101214.67;1711661;83;21562;-73
2022/10/08 11:43:39;;;;;;;3.97;1.80;;;;;;;21.15;38.39;101209.47;1698766;83;21108;-74
2022/10/08 11:46:30;;;;;;;5.75;1.72;;;;;;;21.10;38.54;101215.05;1716405;82;21575;-73
2022/10/08 11:49:01;;;;;;;2.50;1.32;;;;;;;21.10;38.70;101212.34;1691662;83;21096;-73
2022/10/08 11:51:30;;;;;;;4.57;1.90;;;;;;;21.11;38.69;101209.06;1717313;83;21032;-73
2022/10/08 11:54:14;;;;;;;4.12;1.60;;;;;;;21.16;38.94;101206.20;1717603;83;28287;-73